Sunday, February 25, 2018, 3:38 AM GMT
Back to Local

CYYZ, Toronto Pearson Int'L. Ont.

Location: , , Canada Lat: 43.667
Local Time: 3:38 AM GMT ( 3:38 GMT) Lon: -79.633
Time Zone: GMT Elev: 567 ft

Show me the last for .
Show Coded

Time T Td Feel RH Dir Speed Gust Alt SLP Vis Weather Sky Remarks
2018-02-25 03:00 36 25 25 64 100° 12 21 30.09 30.11 15 SCT022 BKN110 OVC210 None
2018-02-25 02:00 34 25 26 69 110° 9 - 30.12 30.15 15 FEW120 OVC230 None
2018-02-25 01:00 34 25 27 69 100° 8 - 30.16 30.18 15 BKN240 None
2018-02-25 00:00 36 27 29 69 120° 8 - 30.18 30.21 15 FEW120 FEW250 None
2018-02-24 23:00 36 25 32 64 140° 5 - 30.16 30.18 15 FEW120 BKN260 None
2018-02-24 22:20 36 25 30 64 140° 7 - 30.15 30.18 15 FEW120 BKN260 None
2018-02-24 22:00 37 25 32 60 140° 7 - 30.16 30.19 15 SCT120 BKN260 None
2018-02-24 21:00 39 25 36 55 90° 5 - 30.16 30.19 15 FEW030 SCT120 BKN240 None
2018-02-24 20:00 39 25 36 55 70° 5 - 30.19 30.21 15 FEW030 BKN120 BKN240 Pressure falling rapidly
2018-02-24 19:00 37 25 33 60 50° 6 - 30.20 30.22 15 FEW025 BKN130 BKN240 None
2018-02-24 18:00 37 25 33 60 360° 6 - 30.21 30.24 15 FEW025 BKN140 BKN240 None
2018-02-24 17:00 36 27 29 69 350° 8 - 30.24 30.27 15 FEW024 BKN130 BKN250 None
2018-02-24 16:00 36 27 29 69 360° 9 - 30.24 30.27 15 SCT025 SCT120 BKN240 None
2018-02-24 15:00 36 27 28 69 10° 10 - 30.26 30.28 15 BKN025 BKN240 None
2018-02-24 14:00 34 27 25 74 360° 12 - 30.24 30.27 15 SCT026 BKN220 None
2018-02-24 13:00 36 28 29 74 30° 9 - 30.23 30.25 15 BKN029 None
2018-02-24 12:13 36 28 29 74 330° 8 - 30.22 30.24 15 BKN031 None
2018-02-24 12:00 37 28 31 69 310° 9 - 30.21 30.24 15 BKN031 None
2018-02-24 11:00 37 30 30 74 300° 10 - 30.21 30.23 15 BKN032 None
2018-02-24 10:00 36 30 29 80 270° 8 - 30.19 30.21 15 BKN030 None
2018-02-24 09:00 36 30 29 80 260° 8 - 30.18 30.20 15 OVC030 None
2018-02-24 08:07 36 30 29 80 280° 9 - 30.18 30.20 15 SCT033 SCT240 None
2018-02-24 08:00 37 30 31 74 280° 9 - 30.18 30.20 15 SCT033 SCT240 None
2018-02-24 07:00 39 34 30 80 310° 14 20 30.17 30.19 15 OVC022 None
2018-02-24 06:00 41 36 30 80 290° 15 26 30.14 30.16 15 OVC022 None
2018-02-24 05:00 41 37 30 86 290° 23 29 30.13 30.15 15 OVC022 None
2018-02-24 04:00 43 39 35 86 280° 10 17 30.11 30.13 15 -DZ OVC016 None

Support USWX by starting your Amazon purchase here.